Time;durP1;ratioP1;P1;durP2;ratioP2;P2;SDS_P1;SDS_P2;PMS_P1;PMS_P2;Temp;Humidity;BMP_temperature;BMP_pressure;BME280_temperature;BME280_humidity;BME280_pressure;Samples;Min_cycle;Max_cycle;Signal;HPM_P1;HPM_P2
2022/01/26 00:00:04;;;;;;;14.18;9.02;;;;;;;;;;4955530;28;20113;-68
2022/01/26 00:05:49;;;;;;;12.00;6.63;;;;;;;;;;4961155;28;20547;-69
2022/01/26 00:08:23;;;;;;;11.63;5.45;;;;;;;;;;4959011;28;20117;-68
2022/01/26 00:10:53;;;;;;;10.55;5.45;;;;;;;;;;4954263;28;20042;-69
2022/01/26 00:13:21;;;;;;;9.88;5.05;;;;;;;;;;4955369;28;20889;-69
2022/01/26 00:15:51;;;;;;;10.23;5.40;;;;;;;;;;4971814;28;20030;-68
2022/01/26 00:18:21;;;;;;;9.60;4.60;;;;;;;;;;4961680;28;20129;-68
2022/01/26 00:20:57;;;;;;;8.93;4.20;;;;;;;;;;4971305;28;20124;-68
2022/01/26 00:29:13;;;;;;;8.35;3.63;;;;;;;;;;4936683;28;20045;-69
2022/01/26 00:40:27;;;;;;;8.27;3.30;;;;;;;;;;4957193;28;20061;-69
2022/01/26 00:43:03;;;;;;;7.88;3.20;;;;;;;;;;4954786;28;20049;-68
2022/01/26 00:45:36;;;;;;;8.02;3.05;;;;;;;;;;4957437;28;20018;-68
2022/01/26 00:48:08;;;;;;;8.10;3.50;;;;;;;;;;4940103;28;20085;-67
2022/01/26 00:50:36;;;;;;;8.77;3.22;;;;;;;;;;4956568;28;20075;-68
2022/01/26 00:53:05;;;;;;;8.93;3.90;;;;;;;;;;4957358;28;20026;-68
2022/01/26 00:55:32;;;;;;;8.23;3.53;;;;;;;;;;4961815;28;20045;-70
2022/01/26 00:57:58;;;;;;;;;;;;;;;;;;4954724;28;20027;-69
2022/01/26 01:00:27;;;;;;;9.35;3.40;;;;;;;;;;4961318;28;19972;-68
2022/01/26 01:02:58;;;;;;;8.98;3.33;;;;;;;;;;4951924;28;20038;-69
2022/01/26 01:05:35;;;;;;;8.77;3.70;;;;;;;;;;4974157;28;20037;-69
2022/01/26 01:08:09;;;;;;;7.80;3.00;;;;;;;;;;4963018;28;20608;-69
2022/01/26 01:10:46;;;;;;;7.90;3.00;;;;;;;;;;4977788;28;20124;-68
2022/01/26 01:13:17;;;;;;;7.60;2.88;;;;;;;;;;4978745;28;20525;-69
2022/01/26 01:15:46;;;;;;;9.05;3.42;;;;;;;;;;4975881;28;20030;-69
2022/01/26 01:18:21;;;;;;;8.98;3.72;;;;;;;;;;4975293;28;20042;-69
2022/01/26 01:29:09;;;;;;;9.02;3.60;;;;;;;;;;4964753;28;20817;-68
2022/01/26 01:31:59;;;;;;;8.25;3.50;;;;;;;;;;4949968;28;20046;-68
2022/01/26 01:34:37;;;;;;;7.07;3.00;;;;;;;;;;4949555;28;20088;-68
2022/01/26 01:37:09;;;;;;;7.97;3.10;;;;;;;;;;4946857;28;20144;-68
2022/01/26 01:39:38;;;;;;;7.90;2.80;;;;;;;;;;4946617;28;20164;-68
2022/01/26 01:42:07;;;;;;;7.40;3.20;;;;;;;;;;4945126;28;20072;-68
2022/01/26 01:44:36;;;;;;;7.90;2.70;;;;;;;;;;4964948;28;20553;-68
2022/01/26 01:47:06;;;;;;;7.50;2.80;;;;;;;;;;4959211;28;20034;-68
2022/01/26 01:49:33;;;;;;;8.77;3.13;;;;;;;;;;4963254;28;20046;-68
2022/01/26 01:52:04;;;;;;;7.20;2.75;;;;;;;;;;4945815;28;20042;-68
2022/01/26 01:54:32;;;;;;;7.97;2.85;;;;;;;;;;4931157;28;20150;-69
2022/01/26 01:57:00;;;;;;;8.40;3.05;;;;;;;;;;4945369;28;20125;-68
2022/01/26 01:59:34;;;;;;;6.97;2.88;;;;;;;;;;4979577;28;20169;-68
2022/01/26 02:02:02;;;;;;;9.10;2.90;;;;;;;;;;4960906;28;20054;-68
2022/01/26 02:04:30;;;;;;;7.38;2.92;;;;;;;;;;4956420;28;20628;-68
2022/01/26 02:06:58;;;;;;;9.32;3.00;;;;;;;;;;4936216;28;20027;-68
2022/01/26 02:09:26;;;;;;;8.15;2.80;;;;;;;;;;4943465;28;20517;-69
2022/01/26 02:11:55;;;;;;;7.82;2.90;;;;;;;;;;4937786;28;20379;-69
2022/01/26 02:14:47;;;;;;;7.05;2.45;;;;;;;;;;4939281;28;20406;-68
2022/01/26 02:17:39;;;;;;;6.82;2.30;;;;;;;;;;4939058;28;20050;-69
2022/01/26 02:51:21;;;;;;;7.95;2.90;;;;;;;;;;4892651;28;20118;-68
2022/01/26 02:56:28;;;;;;;8.85;3.40;;;;;;;;;;4907164;29;20039;-68
2022/01/26 03:02:08;;;;;;;7.80;2.85;;;;;;;;;;4883225;29;20131;-68
2022/01/26 03:04:43;;;;;;;7.50;2.47;;;;;;;;;;4887286;29;20036;-68
2022/01/26 03:07:52;;;;;;;7.88;2.70;;;;;;;;;;4882369;29;20056;-69
2022/01/26 03:10:13;;;;;;;7.40;2.70;;;;;;;;;;4880674;29;20043;-69
2022/01/26 03:12:55;;;;;;;8.30;2.53;;;;;;;;;;4887482;29;20056;-69
2022/01/26 03:15:34;;;;;;;7.07;2.40;;;;;;;;;;4883256;29;20287;-69
2022/01/26 03:18:40;;;;;;;7.30;2.30;;;;;;;;;;4880515;28;20040;-69
2022/01/26 03:21:10;;;;;;;5.85;2.00;;;;;;;;;;4914754;28;20098;-68
2022/01/26 03:29:38;;;;;;;5.45;1.88;;;;;;;;;;4931140;28;22143;-69
2022/01/26 03:34:55;;;;;;;6.10;1.88;;;;;;;;;;4975276;28;20077;-69
2022/01/26 03:37:28;;;;;;;5.03;1.70;;;;;;;;;;4979377;28;20029;-68
2022/01/26 03:39:56;;;;;;;6.40;1.92;;;;;;;;;;4990398;28;20081;-69
2022/01/26 03:42:25;;;;;;;5.13;1.73;;;;;;;;;;4979278;28;20048;-69
2022/01/26 03:44:53;;;;;;;5.72;1.63;;;;;;;;;;4975114;28;20032;-69
2022/01/26 03:47:22;;;;;;;5.75;1.92;;;;;;;;;;4976976;28;20650;-68
2022/01/26 03:49:54;;;;;;;5.90;1.73;;;;;;;;;;4978811;28;20057;-68
2022/01/26 03:52:21;;;;;;;4.90;1.70;;;;;;;;;;4981622;28;20046;-68
2022/01/26 03:54:48;;;;;;;6.07;1.73;;;;;;;;;;4976864;28;20033;-68
2022/01/26 03:57:17;;;;;;;4.65;1.55;;;;;;;;;;4993148;28;20525;-69
2022/01/26 03:59:45;;;;;;;6.30;1.75;;;;;;;;;;4979880;28;20026;-68
2022/01/26 04:02:13;;;;;;;4.70;1.67;;;;;;;;;;4977650;28;20045;-68
2022/01/26 04:04:47;;;;;;;4.97;1.70;;;;;;;;;;4979928;28;20074;-68
2022/01/26 04:07:14;;;;;;;5.60;1.88;;;;;;;;;;4974604;28;20036;-68
2022/01/26 04:09:43;;;;;;;5.50;1.77;;;;;;;;;;4977470;28;20068;-69
2022/01/26 04:12:09;;;;;;;4.55;1.60;;;;;;;;;;4971824;28;20104;-69
2022/01/26 04:14:36;;;;;;;4.82;1.58;;;;;;;;;;4978511;28;20083;-69
2022/01/26 04:17:04;;;;;;;4.32;1.55;;;;;;;;;;4975991;28;20080;-70
2022/01/26 04:19:35;;;;;;;4.38;1.70;;;;;;;;;;4977874;28;20026;-69
2022/01/26 04:22:21;;;;;;;5.57;1.90;;;;;;;;;;4973429;28;20041;-69
2022/01/26 04:24:53;;;;;;;7.05;2.00;;;;;;;;;;4972706;28;20083;-68
2022/01/26 04:27:42;;;;;;;6.25;1.70;;;;;;;;;;4979625;28;20049;-68
2022/01/26 04:30:12;;;;;;;6.32;1.70;;;;;;;;;;4976122;28;20033;-68
2022/01/26 04:32:40;;;;;;;4.15;1.60;;;;;;;;;;4975920;28;20053;-68
2022/01/26 04:35:10;;;;;;;5.43;1.70;;;;;;;;;;4974823;28;20034;-68
2022/01/26 04:40:12;;;;;;;4.65;1.65;;;;;;;;;;4972319;28;20047;-69
2022/01/26 04:43:01;;;;;;;5.80;1.63;;;;;;;;;;4978690;28;20085;-69
2022/01/26 04:45:29;;;;;;;4.10;1.50;;;;;;;;;;4979396;28;20025;-69
2022/01/26 04:47:57;;;;;;;6.43;1.70;;;;;;;;;;4970320;28;20092;-69
2022/01/26 04:50:27;;;;;;;4.78;1.50;;;;;;;;;;4975705;28;20120;-69
2022/01/26 04:52:55;;;;;;;5.30;1.55;;;;;;;;;;4975758;28;20037;-69
2022/01/26 04:55:25;;;;;;;6.00;1.80;;;;;;;;;;4979346;28;20046;-69
2022/01/26 04:57:53;;;;;;;5.05;1.70;;;;;;;;;;4971753;28;20769;-69
2022/01/26 05:00:20;;;;;;;3.28;1.33;;;;;;;;;;4981240;28;20031;-69
2022/01/26 05:02:47;;;;;;;5.60;1.70;;;;;;;;;;4981049;28;20021;-69
2022/01/26 05:05:16;;;;;;;5.35;1.60;;;;;;;;;;4978924;28;20050;-69
2022/01/26 05:07:44;;;;;;;5.50;1.60;;;;;;;;;;4978711;28;21178;-69
2022/01/26 05:10:13;;;;;;;4.35;1.30;;;;;;;;;;4972597;28;20029;-69
2022/01/26 05:12:41;;;;;;;4.55;1.50;;;;;;;;;;4974418;28;20152;-69
2022/01/26 05:15:07;;;;;;;3.97;1.30;;;;;;;;;;4973817;28;21927;-69
2022/01/26 05:17:38;;;;;;;3.88;1.30;;;;;;;;;;4978728;28;20055;-68
2022/01/26 05:20:15;;;;;;;3.95;1.23;;;;;;;;;;4977434;28;20038;-69
2022/01/26 05:22:44;;;;;;;4.85;1.55;;;;;;;;;;4961657;28;20549;-69
2022/01/26 05:25:14;;;;;;;3.85;1.40;;;;;;;;;;4973106;28;20042;-69
2022/01/26 05:27:45;;;;;;;5.47;1.50;;;;;;;;;;4974031;28;20423;-69
2022/01/26 05:30:12;;;;;;;4.55;1.50;;;;;;;;;;4976381;28;20046;-69
2022/01/26 05:32:39;;;;;;;6.30;1.52;;;;;;;;;;4975028;28;20092;-69
2022/01/26 05:35:07;;;;;;;6.15;1.60;;;;;;;;;;4970584;28;20125;-69
2022/01/26 05:37:36;;;;;;;4.43;1.40;;;;;;;;;;4978447;28;20041;-69
2022/01/26 05:40:05;;;;;;;4.93;1.30;;;;;;;;;;4975518;28;20497;-69
2022/01/26 05:42:35;;;;;;;4.18;1.50;;;;;;;;;;4976802;28;20022;-70
2022/01/26 05:45:06;;;;;;;5.78;1.70;;;;;;;;;;4975017;28;20120;-69
2022/01/26 05:47:34;;;;;;;3.95;1.40;;;;;;;;;;4993395;28;20746;-69
2022/01/26 05:50:04;;;;;;;6.07;1.60;;;;;;;;;;4971888;28;20041;-69
2022/01/26 05:52:31;;;;;;;5.28;1.73;;;;;;;;;;4978377;28;20084;-69
2022/01/26 05:54:59;;;;;;;4.45;1.60;;;;;;;;;;4973899;28;20549;-69
2022/01/26 05:57:27;;;;;;;5.72;1.77;;;;;;;;;;4979263;28;21061;-69
2022/01/26 05:59:55;;;;;;;5.88;1.90;;;;;;;;;;4974324;28;20034;-69
2022/01/26 06:02:23;;;;;;;4.82;1.60;;;;;;;;;;4975763;28;20491;-69
2022/01/26 06:04:51;;;;;;;5.35;1.95;;;;;;;;;;4941852;28;20089;-69
2022/01/26 06:07:19;;;;;;;5.78;2.00;;;;;;;;;;4958310;28;20046;-69
2022/01/26 06:09:46;;;;;;;6.13;1.80;;;;;;;;;;4932232;28;20038;-69
2022/01/26 06:12:14;;;;;;;4.78;1.70;;;;;;;;;;4956910;28;20669;-69
2022/01/26 06:14:40;;;;;;;5.57;1.88;;;;;;;;;;4955946;28;20031;-69
2022/01/26 06:17:07;;;;;;;5.43;1.50;;;;;;;;;;4959952;28;20090;-69
2022/01/26 06:19:36;;;;;;;5.95;1.70;;;;;;;;;;4949705;28;20033;-69
2022/01/26 06:22:04;;;;;;;6.55;1.58;;;;;;;;;;4939233;28;20471;-72
2022/01/26 06:24:31;;;;;;;3.47;1.38;;;;;;;;;;4961745;28;20039;-70
2022/01/26 06:26:59;;;;;;;6.32;1.50;;;;;;;;;;4955533;28;20067;-69
2022/01/26 06:29:30;;;;;;;4.03;1.50;;;;;;;;;;4957456;28;20050;-69
2022/01/26 06:32:00;;;;;;;7.63;1.60;;;;;;;;;;4957623;28;20030;-70
2022/01/26 06:34:26;;;;;;;4.25;1.35;;;;;;;;;;4959054;28;20113;-69
2022/01/26 06:36:54;;;;;;;3.13;1.23;;;;;;;;;;4958638;28;20022;-69
2022/01/26 06:39:24;;;;;;;4.15;1.50;;;;;;;;;;4958140;28;20055;-69
2022/01/26 06:41:54;;;;;;;5.15;1.70;;;;;;;;;;4972495;28;20042;-68
2022/01/26 06:44:30;;;;;;;5.88;1.60;;;;;;;;;;4975837;28;20034;-68
2022/01/26 06:49:41;;;;;;;6.18;1.67;;;;;;;;;;4978480;28;20215;-69
2022/01/26 06:52:10;;;;;;;5.05;1.60;;;;;;;;;;4975454;28;20760;-68
2022/01/26 06:54:37;;;;;;;4.95;1.70;;;;;;;;;;4988426;28;20037;-70
2022/01/26 06:57:05;;;;;;;5.82;1.80;;;;;;;;;;4997405;28;20037;-68
2022/01/26 06:59:35;;;;;;;4.78;1.83;;;;;;;;;;5001100;28;20048;-69
2022/01/26 07:02:03;;;;;;;5.80;1.83;;;;;;;;;;5012700;28;20029;-69
2022/01/26 07:04:31;;;;;;;5.18;1.80;;;;;;;;;;4998593;28;20073;-69
2022/01/26 07:06:58;;;;;;;6.20;2.00;;;;;;;;;;4995897;28;20670;-69
2022/01/26 07:09:27;;;;;;;5.22;1.77;;;;;;;;;;5014373;28;20705;-69
2022/01/26 07:11:56;;;;;;;5.20;1.98;;;;;;;;;;5013519;28;20025;-69
2022/01/26 07:19:46;;;;;;;6.32;2.03;;;;;;;;;;4999302;28;20041;-68
2022/01/26 07:22:44;;;;;;;7.07;2.30;;;;;;;;;;4942110;28;20460;-69
2022/01/26 07:25:10;;;;;;;7.47;2.83;;;;;;;;;;4926313;28;20034;-69
2022/01/26 07:27:39;;;;;;;5.90;2.13;;;;;;;;;;4925387;28;20102;-69
2022/01/26 07:30:08;;;;;;;6.53;2.20;;;;;;;;;;4924860;28;20039;-69
2022/01/26 07:32:37;;;;;;;6.18;2.03;;;;;;;;;;4915668;28;20047;-69
2022/01/26 07:35:06;;;;;;;5.95;2.03;;;;;;;;;;4915404;28;20047;-69
2022/01/26 07:37:35;;;;;;;7.07;2.08;;;;;;;;;;4905712;29;20138;-69
2022/01/26 07:40:09;;;;;;;6.05;2.20;;;;;;;;;;4898480;28;20039;-68
2022/01/26 07:42:37;;;;;;;7.60;1.88;;;;;;;;;;4917614;28;20133;-68
2022/01/26 07:45:05;;;;;;;4.97;1.90;;;;;;;;;;4903685;29;20086;-68
2022/01/26 07:47:33;;;;;;;6.07;2.20;;;;;;;;;;4923627;28;20054;-68
2022/01/26 07:50:02;;;;;;;7.10;2.53;;;;;;;;;;4918156;28;20127;-68
2022/01/26 07:52:34;;;;;;;6.38;2.40;;;;;;;;;;4907790;29;20513;-69
2022/01/26 07:55:03;;;;;;;5.85;2.08;;;;;;;;;;4901159;28;20071;-68
2022/01/26 07:57:31;;;;;;;6.30;2.25;;;;;;;;;;4890681;29;20039;-69
2022/01/26 07:59:58;;;;;;;7.72;2.53;;;;;;;;;;4950185;28;20135;-69
2022/01/26 08:02:25;;;;;;;7.53;3.05;;;;;;;;;;4978707;28;20032;-69
2022/01/26 08:04:53;;;;;;;7.82;2.90;;;;;;;;;;4977124;28;20188;-69
2022/01/26 08:07:22;;;;;;;6.78;2.42;;;;;;;;;;4978657;28;20025;-68
2022/01/26 08:09:49;;;;;;;7.53;2.60;;;;;;;;;;4973310;28;20034;-68
2022/01/26 08:12:16;;;;;;;6.82;2.42;;;;;;;;;;4976821;28;20030;-68
2022/01/26 08:14:45;;;;;;;6.63;2.40;;;;;;;;;;4964400;28;20480;-70
2022/01/26 08:17:17;;;;;;;5.90;2.13;;;;;;;;;;4975236;28;20033;-69
2022/01/26 08:19:46;;;;;;;6.47;2.25;;;;;;;;;;4973087;28;20026;-69
2022/01/26 08:22:19;;;;;;;6.85;2.65;;;;;;;;;;4976300;28;20026;-70
2022/01/26 08:24:47;;;;;;;6.78;2.75;;;;;;;;;;4974220;28;20030;-69
2022/01/26 08:27:19;;;;;;;6.40;2.63;;;;;;;;;;4974515;28;20036;-69
2022/01/26 08:29:54;;;;;;;7.60;3.05;;;;;;;;;;4964660;28;20024;-69
2022/01/26 08:32:22;;;;;;;7.90;3.05;;;;;;;;;;4979636;28;20612;-69
2022/01/26 08:34:49;;;;;;;7.20;3.20;;;;;;;;;;4967698;28;20693;-70
2022/01/26 08:37:17;;;;;;;8.13;3.70;;;;;;;;;;4968640;28;20360;-69
2022/01/26 08:39:44;;;;;;;8.52;4.00;;;;;;;;;;4975654;28;20022;-70
2022/01/26 08:42:13;;;;;;;9.68;4.57;;;;;;;;;;4970609;28;20252;-69
2022/01/26 08:44:41;;;;;;;8.35;4.13;;;;;;;;;;4977541;28;20073;-70
2022/01/26 08:47:09;;;;;;;9.55;4.60;;;;;;;;;;4967082;28;20029;-70
2022/01/26 08:49:38;;;;;;;9.68;5.20;;;;;;;;;;4970593;28;20354;-69
2022/01/26 08:52:06;;;;;;;10.63;5.03;;;;;;;;;;4974206;28;20061;-70
2022/01/26 08:54:33;;;;;;;10.45;6.03;;;;;;;;;;4980435;28;20041;-69
2022/01/26 08:57:01;;;;;;;10.38;5.90;;;;;;;;;;4960787;28;20034;-68
2022/01/26 08:59:32;;;;;;;10.70;5.88;;;;;;;;;;4979691;28;20121;-68
2022/01/26 09:01:59;;;;;;;11.75;6.75;;;;;;;;;;4974450;28;20092;-69
2022/01/26 09:04:27;;;;;;;12.27;6.97;;;;;;;;;;4977217;28;20586;-69
2022/01/26 09:07:01;;;;;;;13.05;6.85;;;;;;;;;;4977295;28;20030;-69
2022/01/26 09:09:33;;;;;;;12.13;6.68;;;;;;;;;;4975021;28;20037;-70
2022/01/26 09:12:06;;;;;;;13.77;7.15;;;;;;;;;;4964607;28;20041;-69
2022/01/26 09:14:35;;;;;;;11.60;6.78;;;;;;;;;;4975606;28;20033;-69
2022/01/26 09:17:02;;;;;;;11.07;6.25;;;;;;;;;;4973255;28;20053;-72
2022/01/26 09:19:32;;;;;;;10.35;6.15;;;;;;;;;;4983063;28;20057;-69
2022/01/26 09:22:07;;;;;;;10.45;6.00;;;;;;;;;;4975504;28;20060;-69
2022/01/26 09:24:36;;;;;;;9.43;4.40;;;;;;;;;;4977847;28;20168;-70
2022/01/26 09:27:05;;;;;;;9.73;4.05;;;;;;;;;;4958063;28;20041;-71
2022/01/26 09:29:34;;;;;;;9.45;3.40;;;;;;;;;;4975817;28;20046;-70
2022/01/26 09:32:03;;;;;;;8.70;3.60;;;;;;;;;;4959973;28;20255;-70
2022/01/26 09:34:35;;;;;;;11.35;3.97;;;;;;;;;;4961053;28;20029;-70
2022/01/26 09:37:08;;;;;;;8.50;3.65;;;;;;;;;;4972898;28;20041;-70
2022/01/26 09:39:37;;;;;;;8.45;3.60;;;;;;;;;;4978998;28;20037;-69
2022/01/26 09:42:10;;;;;;;9.50;3.78;;;;;;;;;;4978287;28;20156;-69
2022/01/26 09:44:39;;;;;;;10.15;3.10;;;;;;;;;;4978366;28;20038;-70
2022/01/26 09:47:08;;;;;;;8.20;2.78;;;;;;;;;;4976201;28;20042;-69
2022/01/26 09:49:35;;;;;;;14.65;6.68;;;;;;;;;;4982638;28;20033;-69
2022/01/26 09:52:13;;;;;;;13.07;4.93;;;;;;;;;;4981677;28;20041;-69
2022/01/26 09:54:41;;;;;;;10.98;4.30;;;;;;;;;;4980625;28;20033;-69
2022/01/26 09:57:09;;;;;;;12.32;3.90;;;;;;;;;;4976788;28;20034;-69
2022/01/26 09:59:37;;;;;;;16.15;4.90;;;;;;;;;;4984290;28;20042;-69
2022/01/26 10:02:05;;;;;;;9.20;3.38;;;;;;;;;;4978716;28;20025;-69
2022/01/26 10:04:36;;;;;;;11.15;3.45;;;;;;;;;;4980931;28;20158;-69
2022/01/26 10:07:26;;;;;;;10.82;2.53;;;;;;;;;;4979115;28;20224;-69
2022/01/26 10:15:43;;;;;;;8.95;3.67;;;;;;;;;;4981293;28;20048;-68
2022/01/26 10:18:16;;;;;;;9.05;4.18;;;;;;;;;;4979295;28;20610;-69
2022/01/26 10:20:50;;;;;;;10.25;4.60;;;;;;;;;;4979795;28;20098;-72
2022/01/26 10:26:34;;;;;;;10.57;5.40;;;;;;;;;;4979349;28;20044;-71
2022/01/26 10:29:04;;;;;;;10.35;4.20;;;;;;;;;;4977232;28;20046;-71
2022/01/26 10:31:40;;;;;;;10.88;4.63;;;;;;;;;;4978361;28;20093;-69
2022/01/26 10:34:12;;;;;;;10.18;4.18;;;;;;;;;;4977525;28;20630;-69
2022/01/26 10:36:45;;;;;;;8.82;3.00;;;;;;;;;;4983765;28;20091;-71
2022/01/26 10:39:49;;;;;;;8.32;3.30;;;;;;;;;;4975178;28;20995;-73
2022/01/26 10:42:26;;;;;;;14.88;9.23;;;;;;;;;;4939469;28;20090;-73
2022/01/26 10:45:15;;;;;;;12.50;5.75;;;;;;;;;;4937244;28;20162;-72
2022/01/26 10:47:47;;;;;;;15.25;6.57;;;;;;;;;;4940379;28;20039;-73
2022/01/26 10:50:48;;;;;;;15.30;9.70;;;;;;;;;;4935927;28;20054;-72
2022/01/26 10:53:15;;;;;;;14.63;8.77;;;;;;;;;;4932895;28;20617;-72
2022/01/26 10:55:43;;;;;;;12.07;6.45;;;;;;;;;;4942041;28;20106;-72
2022/01/26 10:58:11;;;;;;;9.63;5.30;;;;;;;;;;4934620;28;20039;-72
2022/01/26 11:00:44;;;;;;;13.45;5.90;;;;;;;;;;4927353;28;20031;-72
2022/01/26 11:03:12;;;;;;;11.32;5.13;;;;;;;;;;4937073;28;20712;-72
2022/01/26 11:05:40;;;;;;;10.55;3.85;;;;;;;;;;4938817;28;20081;-72
2022/01/26 11:08:28;;;;;;;11.05;3.50;;;;;;;;;;4935492;28;20057;-72
2022/01/26 11:10:57;;;;;;;8.10;2.97;;;;;;;;;;4931960;28;20129;-72
2022/01/26 11:13:25;;;;;;;7.15;2.28;;;;;;;;;;4939384;28;20037;-72
2022/01/26 11:15:53;;;;;;;9.25;2.08;;;;;;;;;;4922554;28;20165;-72
2022/01/26 11:18:22;;;;;;;6.90;2.15;;;;;;;;;;4939210;28;20148;-71
2022/01/26 11:20:55;;;;;;;8.35;2.40;;;;;;;;;;4976321;28;20633;-73
2022/01/26 11:23:43;;;;;;;10.88;2.53;;;;;;;;;;4973314;28;20041;-73
2022/01/26 11:26:24;;;;;;;5.85;1.98;;;;;;;;;;4969886;28;20825;-72
2022/01/26 11:28:53;;;;;;;7.25;2.00;;;;;;;;;;4972515;28;20096;-72
2022/01/26 11:31:24;;;;;;;7.50;2.30;;;;;;;;;;4982292;28;20052;-72
2022/01/26 11:33:56;;;;;;;6.07;1.85;;;;;;;;;;4971990;28;20025;-75
2022/01/26 11:36:23;;;;;;;7.30;1.85;;;;;;;;;;4982201;28;21548;-72
2022/01/26 11:47:21;;;;;;;6.88;2.15;;;;;;;;;;4977593;28;20509;-72
2022/01/26 11:49:52;;;;;;;7.53;2.50;;;;;;;;;;4974146;28;20033;-73
2022/01/26 11:52:26;;;;;;;7.10;2.40;;;;;;;;;;4982445;28;20132;-72
2022/01/26 11:54:57;;;;;;;8.35;3.20;;;;;;;;;;4976777;28;20029;-72
2022/01/26 11:58:00;;;;;;;6.93;2.60;;;;;;;;;;4980206;28;20042;-73
2022/01/26 12:00:47;;;;;;;6.72;2.40;;;;;;;;;;4956744;28;20065;-73
2022/01/26 12:03:31;;;;;;;6.72;2.40;;;;;;;;;;4981018;28;20034;-73
2022/01/26 12:06:00;;;;;;;5.93;2.20;;;;;;;;;;4975937;28;20454;-72
2022/01/26 12:08:36;;;;;;;7.60;2.42;;;;;;;;;;4977092;28;20042;-72
2022/01/26 12:11:09;;;;;;;8.80;3.13;;;;;;;;;;4979116;28;20064;-72
2022/01/26 12:13:39;;;;;;;9.23;3.17;;;;;;;;;;4978507;28;20481;-72
2022/01/26 12:16:20;;;;;;;8.18;2.80;;;;;;;;;;4976893;28;22274;-72
2022/01/26 12:18:59;;;;;;;6.00;2.35;;;;;;;;;;4979240;28;20104;-71
2022/01/26 12:36:01;;;;;;;6.72;2.40;;;;;;;;;;4973254;28;20042;-71
2022/01/26 12:41:21;;;;;;;6.75;2.33;;;;;;;;;;4970476;28;20662;-70
2022/01/26 12:43:56;;;;;;;5.90;1.90;;;;;;;;;;4957418;28;20030;-71
2022/01/26 12:46:40;;;;;;;7.63;1.88;;;;;;;;;;4977811;28;20603;-71
2022/01/26 12:49:20;;;;;;;5.55;2.10;;;;;;;;;;4972829;28;20048;-71
2022/01/26 12:51:53;;;;;;;5.93;2.30;;;;;;;;;;4976725;28;20045;-71
2022/01/26 12:54:26;;;;;;;7.47;2.30;;;;;;;;;;4977465;28;20058;-71
2022/01/26 12:57:06;;;;;;;6.22;2.60;;;;;;;;;;4972777;28;20536;-72
2022/01/26 12:59:33;;;;;;;8.43;2.95;;;;;;;;;;4975528;28;20108;-71
2022/01/26 13:02:00;;;;;;;7.10;2.67;;;;;;;;;;4972252;28;20136;-71
2022/01/26 13:04:30;;;;;;;6.32;2.50;;;;;;;;;;4974299;28;20039;-71
2022/01/26 13:06:57;;;;;;;7.28;2.63;;;;;;;;;;4971320;28;20037;-71
2022/01/26 13:09:31;;;;;;;7.20;2.63;;;;;;;;;;4964159;28;20038;-71
2022/01/26 13:11:58;;;;;;;6.80;2.42;;;;;;;;;;4954559;28;20043;-71
2022/01/26 13:14:31;;;;;;;6.05;2.22;;;;;;;;;;4954769;28;20018;-72
2022/01/26 13:20:12;;;;;;;6.95;2.15;;;;;;;;;;4954864;28;20046;-73
2022/01/26 13:28:40;;;;;;;8.73;3.53;;;;;;;;;;4955595;28;20042;-73
2022/01/26 13:36:34;;;;;;;8.20;2.50;;;;;;;;;;4959258;28;20053;-71
2022/01/26 13:41:37;;;;;;;7.53;2.90;;;;;;;;;;4851051;28;3514668;-71
2022/01/26 13:47:15;;;;;;;7.30;2.78;;;;;;;;;;4973995;28;20041;-71
2022/01/26 13:50:08;;;;;;;10.82;3.00;;;;;;;;;;4991965;28;20037;-71
2022/01/26 13:55:34;;;;;;;8.00;3.55;;;;;;;;;;4975133;28;20041;-71
2022/01/26 13:58:21;;;;;;;7.03;2.78;;;;;;;;;;4977492;28;20026;-71
2022/01/26 14:01:00;;;;;;;8.10;3.83;;;;;;;;;;4978455;28;20037;-71
2022/01/26 14:03:31;;;;;;;7.10;2.90;;;;;;;;;;4979724;28;20176;-71
2022/01/26 14:05:58;;;;;;;7.72;2.67;;;;;;;;;;4973978;28;20025;-71
2022/01/26 14:08:25;;;;;;;5.88;1.85;;;;;;;;;;4978896;28;20030;-71
2022/01/26 14:10:53;;;;;;;7.18;2.20;;;;;;;;;;4976943;28;20049;-71
2022/01/26 14:13:21;;;;;;;5.78;1.95;;;;;;;;;;4983249;28;20757;-71
2022/01/26 14:15:50;;;;;;;6.80;2.63;;;;;;;;;;4979401;28;20048;-70
2022/01/26 14:21:23;;;;;;;5.93;2.10;;;;;;;;;;4979021;28;20068;-70
2022/01/26 14:24:23;;;;;;;6.88;2.08;;;;;;;;;;4979136;28;20752;-70
2022/01/26 14:26:51;;;;;;;8.38;3.28;;;;;;;;;;4977838;28;20056;-70
2022/01/26 14:29:52;;;;;;;6.80;2.30;;;;;;;;;;4979978;28;20033;-70
2022/01/26 14:35:24;;;;;;;7.43;2.33;;;;;;;;;;4977375;28;20041;-70
2022/01/26 14:51:51;;;;;;;7.70;2.50;;;;;;;;;;4978349;28;20149;-70
2022/01/26 14:54:43;;;;;;;5.78;2.10;;;;;;;;;;4975243;28;20129;-72
2022/01/26 15:30:52;;;;;;;7.55;2.78;;;;;;;;;;4953596;28;20128;-73
2022/01/26 15:34:08;;;;;;;7.10;2.55;;;;;;;;;;4953762;28;20057;-72
2022/01/26 15:44:50;;;;;;;9.05;3.80;;;;;;;;;;4937203;28;20149;-73
2022/01/26 15:53:03;;;;;;;10.02;4.78;;;;;;;;;;4962890;28;20034;-72
2022/01/26 15:58:27;;;;;;;19.25;14.45;;;;;;;;;;4975145;28;20127;-73
2022/01/26 16:06:39;;;;;;;18.35;15.95;;;;;;;;;;4973061;28;20040;-72
2022/01/26 17:47:01;;;;;;;18.30;11.52;;;;;;;;;;4953764;28;21575;-73
2022/01/26 18:17:17;;;;;;;32.35;21.63;;;;;;;;;;4980443;28;20482;-73
2022/01/26 18:50:08;;;;;;;21.60;13.45;;;;;;;;;;4937787;28;20044;-73
2022/01/26 18:52:36;;;;;;;20.35;14.20;;;;;;;;;;4938946;28;20077;-72
2022/01/26 18:55:05;;;;;;;23.35;15.18;;;;;;;;;;4937623;28;20049;-72
2022/01/26 18:57:31;;;;;;;23.67;16.20;;;;;;;;;;4940280;28;20977;-73
2022/01/26 18:59:57;;;;;;;29.83;18.63;;;;;;;;;;4955439;28;20030;-72
2022/01/26 19:02:25;;;;;;;25.52;18.83;;;;;;;;;;4963401;28;20030;-71
2022/01/26 19:04:51;;;;;;;28.02;19.40;;;;;;;;;;4960168;28;20046;-72
2022/01/26 19:07:18;;;;;;;27.48;20.73;;;;;;;;;;4961304;28;20065;-72
2022/01/26 19:09:49;;;;;;;29.10;21.10;;;;;;;;;;4960757;28;20061;-72
2022/01/26 19:12:17;;;;;;;28.90;20.27;;;;;;;;;;4961531;28;20560;-72
2022/01/26 19:14:50;;;;;;;31.33;21.33;;;;;;;;;;4961636;28;20046;-72
2022/01/26 19:17:28;;;;;;;28.38;20.92;;;;;;;;;;4960391;28;20030;-71
2022/01/26 19:25:13;;;;;;;31.15;21.27;;;;;;;;;;4978228;28;20042;-71
2022/01/26 19:28:09;;;;;;;27.05;18.95;;;;;;;;;;4978669;28;20560;-73
2022/01/26 19:44:07;;;;;;;30.48;20.15;;;;;;;;;;4980369;28;20044;-72
2022/01/26 19:52:09;;;;;;;26.15;17.10;;;;;;;;;;4983703;28;20495;-73
2022/01/26 19:54:37;;;;;;;25.80;16.80;;;;;;;;;;4981487;28;20033;-73
2022/01/26 19:57:04;;;;;;;25.40;16.60;;;;;;;;;;4977841;28;20079;-73
2022/01/26 19:59:31;;;;;;;24.73;16.90;;;;;;;;;;4980581;28;20037;-72
2022/01/26 20:01:57;;;;;;;32.75;21.13;;;;;;;;;;4976907;28;20031;-72
2022/01/26 20:04:23;;;;;;;32.33;21.42;;;;;;;;;;4973050;28;20098;-72
2022/01/26 20:06:50;;;;;;;35.78;22.85;;;;;;;;;;4973547;28;20056;-72
2022/01/26 20:09:28;;;;;;;35.85;24.80;;;;;;;;;;4974426;28;20072;-72
2022/01/26 20:12:03;;;;;;;40.30;26.10;;;;;;;;;;4988568;28;20036;-72
2022/01/26 20:14:34;;;;;;;34.58;23.65;;;;;;;;;;4979507;28;20045;-72
2022/01/26 20:17:00;;;;;;;32.67;22.25;;;;;;;;;;4970543;28;20042;-73
2022/01/26 20:19:27;;;;;;;29.00;20.08;;;;;;;;;;4979001;28;20058;-72
2022/01/26 20:21:53;;;;;;;30.52;18.80;;;;;;;;;;4973543;28;20148;-72
2022/01/26 20:24:20;;;;;;;27.65;18.50;;;;;;;;;;4973133;28;20024;-72
2022/01/26 20:26:46;;;;;;;;;;;;;;;;;;4977502;28;20030;-72
2022/01/26 20:29:12;;;;;;;28.30;19.92;;;;;;;;;;4986979;28;19924;-72
2022/01/26 20:31:39;;;;;;;28.83;19.65;;;;;;;;;;4979268;28;20042;-73
2022/01/26 20:34:05;;;;;;;29.92;20.02;;;;;;;;;;4970376;28;20105;-73
2022/01/26 20:36:33;;;;;;;30.33;21.38;;;;;;;;;;4975743;28;20053;-73
2022/01/26 20:39:01;;;;;;;30.55;20.42;;;;;;;;;;4974446;28;20026;-73
2022/01/26 20:41:28;;;;;;;29.80;19.33;;;;;;;;;;4975163;28;20043;-72
2022/01/26 20:43:54;;;;;;;;;;;;;;;;;;4971563;28;20660;-73
2022/01/26 20:46:20;;;;;;;29.20;18.25;;;;;;;;;;4975102;28;20685;-72
2022/01/26 20:48:46;;;;;;;26.52;16.88;;;;;;;;;;4975251;28;20125;-71
2022/01/26 20:51:13;;;;;;;21.92;14.68;;;;;;;;;;4973816;28;20026;-71
2022/01/26 20:53:41;;;;;;;24.95;15.43;;;;;;;;;;4979432;28;20497;-72
2022/01/26 20:56:07;;;;;;;22.70;14.85;;;;;;;;;;4971513;28;20038;-72
2022/01/26 20:58:34;;;;;;;18.13;11.95;;;;;;;;;;4974125;28;20058;-72
2022/01/26 21:01:00;;;;;;;;;;;;;;;;;;4972130;28;20022;-72
2022/01/26 21:03:26;;;;;;;22.98;14.68;;;;;;;;;;4975208;28;19979;-72
2022/01/26 21:05:53;;;;;;;21.55;12.32;;;;;;;;;;4975309;28;20014;-72
2022/01/26 21:08:22;;;;;;;19.02;11.48;;;;;;;;;;4963746;28;20424;-71
2022/01/26 21:10:49;;;;;;;18.35;11.23;;;;;;;;;;4979370;28;20029;-72
2022/01/26 21:13:15;;;;;;;21.52;12.25;;;;;;;;;;4979628;28;20018;-71
2022/01/26 21:15:41;;;;;;;20.88;12.38;;;;;;;;;;4978920;28;20144;-71
2022/01/26 21:18:08;;;;;;;18.67;11.57;;;;;;;;;;4975666;28;20029;-71
2022/01/26 21:20:34;;;;;;;20.95;12.02;;;;;;;;;;4995818;28;20640;-72
2022/01/26 21:23:00;;;;;;;20.40;13.43;;;;;;;;;;4974846;28;20034;-72
2022/01/26 21:25:26;;;;;;;21.80;14.57;;;;;;;;;;4975467;28;20025;-72
2022/01/26 21:27:52;;;;;;;29.45;21.40;;;;;;;;;;4973240;28;20038;-72
2022/01/26 21:30:19;;;;;;;27.58;18.38;;;;;;;;;;4978172;28;20064;-72
2022/01/26 21:32:45;;;;;;;24.05;15.82;;;;;;;;;;4980512;28;20034;-72
2022/01/26 21:35:12;;;;;;;24.30;14.27;;;;;;;;;;4974937;28;20038;-72
2022/01/26 21:37:38;;;;;;;20.75;14.13;;;;;;;;;;4975552;28;20034;-73